createdAt,value
2023-03-06T01:10:25.063Z,43.76
2023-03-06T01:11:41.090Z,42.90
2023-03-06T01:12:24.854Z,42.60
2023-03-06T01:13:25.051Z,42.55
2023-03-06T01:14:24.825Z,42.67
2023-03-06T01:16:46.051Z,43.58
2023-03-06T01:17:45.705Z,43.31
2023-03-06T01:20:37.917Z,44.87
2023-03-06T01:21:37.910Z,43.63
2023-03-06T01:30:58.800Z,43.50
2023-03-06T01:34:10.464Z,44.53
2023-03-06T01:35:26.100Z,43.91
2023-03-06T01:36:10.035Z,43.95
2023-03-06T01:37:09.850Z,43.51
2023-03-06T01:38:10.721Z,43.21
2023-03-06T01:39:11.790Z,43.16
2023-03-06T04:59:31.644Z,46.03
2023-03-06T05:06:31.645Z,45.85
2023-03-06T05:07:31.581Z,46.08
2023-03-06T05:13:31.637Z,46.08
2023-03-06T05:53:31.693Z,47.10
2023-03-06T06:01:31.489Z,47.24
2023-03-06T06:08:52.065Z,46.91
2023-03-06T06:09:55.498Z,47.22
2023-03-06T06:10:55.680Z,46.98
2023-03-06T06:11:55.430Z,47.03
2023-03-06T06:12:55.450Z,47.07
2023-03-06T06:13:55.427Z,47.01
2023-03-06T06:14:55.389Z,47.03
2023-03-06T06:15:55.385Z,47.23
2023-03-06T06:16:55.431Z,47.04
2023-03-06T06:17:55.318Z,46.91
2023-03-06T06:18:55.327Z,46.76
2023-03-06T06:19:55.360Z,46.57
2023-03-06T06:20:56.088Z,46.70
2023-03-06T06:21:55.292Z,46.63
2023-03-06T06:22:55.276Z,46.66
2023-03-06T06:23:55.288Z,46.54
2023-03-06T06:24:55.270Z,46.71
2023-03-06T06:25:55.267Z,46.75
2023-03-06T06:26:55.265Z,46.72
2023-03-06T06:27:55.351Z,46.58
2023-03-06T06:28:56.446Z,46.65
2023-03-06T06:29:55.237Z,46.69
2023-03-06T06:30:55.258Z,46.61
2023-03-06T06:31:55.253Z,46.76
2023-03-06T06:32:55.251Z,46.59
2023-03-06T06:33:55.218Z,47.00
2023-03-06T06:34:55.228Z,47.12
2023-03-06T06:35:56.082Z,46.68
2023-03-06T06:36:55.230Z,46.21
2023-03-06T06:37:55.349Z,45.87
2023-03-06T06:38:55.355Z,46.01
2023-03-06T06:39:55.452Z,46.36
2023-03-06T06:41:30.651Z,46.26
2023-03-06T06:42:09.971Z,46.26
2023-03-06T06:42:56.504Z,46.07
2023-03-06T06:43:57.114Z,46.18
2023-03-06T06:44:55.488Z,45.89
2023-03-06T08:17:57.453Z,42.93
2023-03-06T08:18:57.380Z,42.22
2023-03-06T08:19:57.209Z,42.37
2023-03-06T08:20:57.109Z,41.79
2023-03-06T08:22:00.137Z,41.82
2023-03-06T08:55:11.904Z,40.63
2023-03-06T09:41:31.706Z,34.01
2023-03-06T10:31:23.846Z,28.93
2023-03-06T10:36:21.025Z,27.99
2023-03-06T10:37:21.111Z,27.77
2023-03-06T10:38:20.596Z,27.78
2023-03-06T10:39:20.575Z,28.00
2023-03-06T10:40:20.337Z,27.22
2023-03-06T10:41:19.972Z,27.43
2023-03-06T10:42:19.983Z,27.25
2023-03-06T10:43:19.931Z,27.01
2023-03-06T10:44:19.918Z,26.67
2023-03-06T10:45:20.129Z,26.54
2023-03-06T10:46:19.928Z,26.59
2023-03-06T10:48:41.674Z,25.95
2023-03-06T10:49:41.366Z,26.01
2023-03-06T10:50:39.727Z,26.25
2023-03-06T10:51:40.335Z,26.21
2023-03-06T10:52:39.423Z,26.29
2023-03-06T10:53:39.440Z,25.36
2023-03-06T10:54:39.605Z,25.23
2023-03-06T10:55:39.393Z,24.72
2023-03-06T10:56:39.466Z,25.36
2023-03-06T10:57:39.439Z,24.83
2023-03-06T10:58:39.422Z,25.19
2023-03-06T10:59:39.454Z,24.33
2023-03-06T11:00:39.362Z,24.05
2023-03-06T11:01:39.458Z,23.34
2023-03-06T11:02:39.388Z,23.42
2023-03-06T11:03:39.457Z,23.36
2023-03-06T11:04:39.519Z,23.42
2023-03-06T11:05:39.464Z,23.76
2023-03-06T11:06:39.464Z,24.08
2023-03-06T11:08:59.092Z,23.73
2023-03-06T11:11:31.613Z,23.65
2023-03-06T11:12:19.963Z,23.41
2023-03-06T11:13:21.382Z,23.16
2023-03-06T13:17:21.672Z,21.92
2023-03-06T13:18:22.025Z,22.21
2023-03-06T13:19:21.549Z,22.51
2023-03-06T13:20:21.710Z,22.65
2023-03-06T13:21:21.456Z,22.34
2023-03-06T13:22:21.556Z,21.59
2023-03-06T13:23:21.477Z,22.09
2023-03-06T13:24:21.445Z,21.35
2023-03-06T13:25:21.531Z,21.64
2023-03-06T13:26:21.491Z,21.16
2023-03-06T13:27:21.732Z,21.06
2023-03-06T13:28:21.436Z,22.04
2023-03-06T13:29:21.406Z,21.54
2023-03-06T13:30:21.381Z,21.45
2023-03-06T13:31:27.215Z,22.11
2023-03-06T13:33:21.411Z,21.92
2023-03-06T13:34:21.395Z,21.99
2023-03-06T13:35:21.578Z,21.67
2023-03-06T13:36:21.445Z,21.67
2023-03-06T13:37:21.377Z,22.48
2023-03-06T13:38:21.369Z,21.89
2023-03-06T13:39:21.456Z,22.12
2023-03-06T13:40:21.624Z,21.71
2023-03-06T13:41:21.454Z,21.70
2023-03-06T13:42:21.404Z,21.82
2023-03-06T13:43:21.511Z,22.26
2023-03-06T13:45:41.230Z,22.66
2023-03-06T13:46:40.878Z,22.13
2023-03-06T13:48:06.450Z,22.04
2023-03-06T13:48:45.121Z,22.18
2023-03-06T13:49:40.744Z,22.33
2023-03-06T13:50:40.765Z,22.26
2023-03-06T13:51:40.686Z,22.46
2023-03-06T13:52:40.884Z,22.14
2023-03-06T13:53:40.857Z,22.85
2023-03-06T13:54:40.795Z,22.79
2023-03-06T13:55:40.917Z,22.98
2023-03-06T13:56:40.687Z,23.48
2023-03-06T13:57:40.877Z,23.74
2023-03-06T13:58:40.983Z,23.30
2023-03-06T13:59:40.761Z,23.18
2023-03-06T14:00:40.761Z,22.96
2023-03-06T14:01:40.926Z,23.62
2023-03-06T14:02:40.762Z,23.62
2023-03-06T14:03:40.803Z,23.77
2023-03-06T14:04:40.769Z,23.79
2023-03-06T14:05:40.967Z,24.00
2023-03-06T14:06:40.875Z,24.35
2023-03-06T14:07:40.964Z,24.47
2023-03-06T14:08:40.964Z,24.81
2023-03-06T14:09:40.976Z,24.74
2023-03-06T14:10:41.015Z,24.75
2023-03-06T14:11:41.033Z,24.75
2023-03-06T14:12:41.112Z,25.68
2023-03-06T14:13:47.200Z,25.54
2023-03-06T14:16:01.289Z,26.09
2023-03-06T14:17:00.830Z,25.90
2023-03-06T14:18:01.130Z,26.09
2023-03-06T14:19:00.655Z,26.25
2023-03-06T14:20:00.877Z,26.50
2023-03-06T14:21:00.733Z,26.64
2023-03-06T14:22:00.851Z,26.99
2023-03-06T14:23:01.588Z,26.92
2023-03-06T14:24:00.914Z,26.97
2023-03-06T14:25:00.602Z,26.78
2023-03-06T14:26:00.580Z,26.70
2023-03-06T14:27:00.575Z,26.65
2023-03-06T14:28:09.133Z,26.85
2023-03-06T14:29:01.812Z,26.96
2023-03-06T14:30:00.560Z,27.62
2023-03-06T14:31:00.718Z,27.59
2023-03-06T14:32:00.801Z,27.48
2023-03-06T14:33:00.530Z,27.08
2023-03-06T14:34:01.469Z,27.13
2023-03-06T14:35:00.588Z,27.71
2023-03-06T14:36:01.246Z,27.65
2023-03-06T14:52:19.926Z,29.18
2023-03-06T14:53:19.912Z,29.17
2023-03-06T14:54:19.934Z,29.30
2023-03-06T14:55:19.908Z,29.36
2023-03-06T14:56:19.917Z,30.03
2023-03-06T14:57:19.941Z,30.07
2023-03-06T14:58:19.914Z,30.48
2023-03-06T14:59:19.856Z,30.55
2023-03-06T15:00:19.988Z,30.79
2023-03-06T15:01:19.998Z,31.10
2023-03-06T15:02:20.001Z,31.18
2023-03-06T15:03:20.043Z,31.16
2023-03-06T15:04:20.090Z,31.11
2023-03-06T15:05:20.094Z,31.14
2023-03-06T15:06:20.155Z,30.99
2023-03-06T15:07:20.215Z,30.79
2023-03-06T15:08:20.174Z,31.25
2023-03-06T15:09:20.266Z,31.17
2023-03-06T15:10:20.307Z,31.28
2023-03-06T15:11:20.314Z,31.61
2023-03-06T15:12:20.353Z,31.42
2023-03-06T15:13:20.431Z,31.61
2023-03-06T15:14:20.431Z,31.90
2023-03-06T15:15:20.489Z,32.01
2023-03-06T15:16:20.542Z,32.04
2023-03-06T15:17:20.521Z,32.15
2023-03-06T15:18:20.561Z,32.24
2023-03-06T15:19:20.516Z,32.28
2023-03-06T15:20:20.584Z,32.24
2023-03-06T15:21:20.579Z,32.47
2023-03-06T15:22:20.589Z,32.12
2023-03-06T15:23:20.606Z,32.21
2023-03-06T15:24:21.135Z,32.42
2023-03-06T15:25:20.710Z,32.81
2023-03-06T15:26:20.716Z,33.38
2023-03-06T15:27:20.735Z,33.30
2023-03-06T15:28:20.746Z,33.30
2023-03-06T15:29:20.790Z,33.61
2023-03-06T15:31:20.925Z,33.36
2023-03-06T15:32:20.928Z,33.85
2023-03-06T15:33:21.097Z,33.82
2023-03-06T15:34:20.979Z,33.86
2023-03-06T15:35:20.983Z,34.01
2023-03-06T15:36:21.016Z,34.37
2023-03-06T15:37:20.985Z,33.86
2023-03-06T15:38:21.052Z,33.53
2023-03-06T15:44:21.090Z,34.05
2023-03-06T15:47:21.268Z,33.39
2023-03-06T15:49:21.278Z,33.84
2023-03-06T18:57:42.501Z,37.19
2023-03-06T18:58:42.533Z,37.03
2023-03-06T18:59:42.547Z,36.66
2023-03-06T19:00:42.494Z,37.16
2023-03-06T19:03:02.655Z,36.98
2023-03-06T19:04:03.080Z,36.88
2023-03-06T19:05:02.579Z,36.62
2023-03-06T19:06:02.564Z,36.72
2023-03-06T19:07:02.574Z,36.75
2023-03-06T19:08:02.543Z,36.86
2023-03-06T19:09:02.523Z,36.70
2023-03-06T19:10:02.565Z,36.83
2023-03-06T19:11:02.546Z,36.91
2023-03-06T19:12:02.510Z,37.06
2023-03-06T19:13:02.534Z,36.90
2023-03-06T19:14:02.525Z,36.56
2023-03-06T19:15:02.565Z,36.80
2023-03-06T19:16:02.535Z,36.77
2023-03-06T19:17:02.532Z,36.88
2023-03-06T19:18:02.477Z,36.73
2023-03-06T19:19:02.492Z,36.88
2023-03-06T19:20:02.505Z,37.01
2023-03-06T19:21:02.548Z,36.99
2023-03-06T19:22:02.528Z,37.01
2023-03-06T19:23:02.481Z,36.95
2023-03-06T19:24:02.439Z,37.06
2023-03-06T19:25:03.913Z,36.56
2023-03-06T19:26:02.449Z,36.57
2023-03-06T19:27:02.470Z,36.78
2023-03-06T19:28:02.423Z,36.79
2023-03-06T19:29:02.552Z,36.95
2023-03-06T19:30:02.447Z,36.87
2023-03-06T19:31:02.392Z,36.68
2023-03-06T19:32:02.504Z,36.77
2023-03-06T19:33:02.448Z,36.83
2023-03-06T19:34:02.365Z,36.90
2023-03-06T19:35:02.391Z,36.84
2023-03-06T19:53:21.996Z,36.74
2023-03-06T19:54:21.922Z,36.64
2023-03-06T19:55:22.031Z,36.41
2023-03-06T19:56:21.991Z,36.49
2023-03-06T19:57:21.975Z,37.03
2023-03-06T19:58:21.948Z,37.40
2023-03-06T19:59:21.965Z,37.38
2023-03-06T20:00:21.954Z,36.90
2023-03-06T20:01:22.115Z,36.55
2023-03-06T20:02:21.883Z,36.26
2023-03-06T20:03:21.908Z,35.97
2023-03-06T20:04:21.943Z,35.64
2023-03-06T20:05:21.921Z,35.59
2023-03-06T20:06:21.896Z,35.61
2023-03-06T20:07:22.003Z,35.63
2023-03-06T20:08:21.899Z,35.46
2023-03-06T21:47:41.532Z,38.93
2023-03-06T21:48:42.148Z,38.78
2023-03-06T21:50:41.455Z,38.83
2023-03-06T21:51:41.686Z,38.81
2023-03-06T21:52:41.290Z,38.96
2023-03-06T21:53:41.330Z,38.97
2023-03-06T21:54:41.666Z,39.46
2023-03-06T21:55:41.298Z,38.95
2023-03-06T21:56:41.281Z,38.82
2023-03-06T21:57:41.270Z,38.96
2023-03-06T21:58:41.250Z,38.76
2023-03-06T21:59:41.408Z,38.85
2023-03-06T22:01:41.652Z,39.41
2023-03-06T22:02:41.553Z,39.19
2023-03-06T22:03:41.285Z,39.16
2023-03-06T22:04:41.321Z,38.95
2023-03-06T22:05:41.442Z,39.37
2023-03-06T22:06:41.750Z,39.20
2023-03-06T22:07:42.183Z,39.37
2023-03-06T22:08:41.222Z,39.10
2023-03-06T22:09:41.221Z,39.25
2023-03-06T22:10:41.221Z,39.56
2023-03-06T22:11:41.194Z,39.52
2023-03-06T22:12:41.229Z,39.42
2023-03-06T22:13:41.199Z,39.26
2023-03-06T23:08:16.919Z,41.75
2023-03-06T23:09:16.901Z,41.52
2023-03-06T23:10:16.897Z,41.51
2023-03-06T23:11:16.905Z,41.03
2023-03-06T23:29:16.403Z,40.86
2023-03-06T23:30:16.328Z,40.93
2023-03-06T23:31:16.909Z,41.01
2023-03-06T23:32:16.367Z,41.65
2023-03-06T23:33:16.258Z,41.58
2023-03-06T23:34:16.223Z,41.40
2023-03-06T23:35:16.271Z,41.27
2023-03-06T23:36:16.311Z,41.58
2023-03-06T23:37:16.222Z,41.45
2023-03-06T23:38:16.214Z,41.82
2023-03-06T23:39:16.180Z,41.85
2023-03-06T23:40:16.213Z,41.61
2023-03-06T23:41:16.235Z,41.76
2023-03-06T23:42:16.192Z,41.70
2023-03-06T23:43:16.187Z,42.04
2023-03-06T23:44:16.143Z,42.35
2023-03-06T23:45:16.220Z,41.81
2023-03-06T23:46:16.237Z,41.53
2023-03-06T23:49:09.555Z,42.79
2023-03-06T23:50:09.719Z,41.70
